sensor_id;sensor_type;location;lat;lon;timestamp;pressure;altitude;pressure_sealevel;temperature
12007;BMP180;6062;47.294;12.182;2023-05-10T00:00:13;79950.00;;;11.60
12007;BMP180;6062;47.294;12.182;2023-05-10T00:02:39;79938.00;;;11.50
12007;BMP180;6062;47.294;12.182;2023-05-10T00:05:06;79942.00;;;11.50
12007;BMP180;6062;47.294;12.182;2023-05-10T00:07:32;79940.00;;;11.40
12007;BMP180;6062;47.294;12.182;2023-05-10T00:09:58;79940.00;;;11.40
12007;BMP180;6062;47.294;12.182;2023-05-10T00:12:24;79932.00;;;11.30
12007;BMP180;6062;47.294;12.182;2023-05-10T00:14:49;79941.00;;;11.20
12007;BMP180;6062;47.294;12.182;2023-05-10T00:17:15;79935.00;;;11.20
12007;BMP180;6062;47.294;12.182;2023-05-10T00:19:41;79938.00;;;11.10
12007;BMP180;6062;47.294;12.182;2023-05-10T00:22:06;79936.00;;;11.10
12007;BMP180;6062;47.294;12.182;2023-05-10T00:24:32;79936.00;;;11.00
12007;BMP180;6062;47.294;12.182;2023-05-10T00:26:58;79933.00;;;11.00
12007;BMP180;6062;47.294;12.182;2023-05-10T00:29:23;79932.00;;;11.00
12007;BMP180;6062;47.294;12.182;2023-05-10T00:31:49;79927.00;;;10.90
12007;BMP180;6062;47.294;12.182;2023-05-10T00:34:15;79930.00;;;10.90
12007;BMP180;6062;47.294;12.182;2023-05-10T00:36:40;79927.00;;;10.90
12007;BMP180;6062;47.294;12.182;2023-05-10T00:39:06;79929.00;;;10.90
12007;BMP180;6062;47.294;12.182;2023-05-10T00:41:33;79923.00;;;10.80
12007;BMP180;6062;47.294;12.182;2023-05-10T00:43:59;79926.00;;;10.80
12007;BMP180;6062;47.294;12.182;2023-05-10T00:46:25;79920.00;;;10.70
12007;BMP180;6062;47.294;12.182;2023-05-10T00:48:52;79928.00;;;10.70
12007;BMP180;6062;47.294;12.182;2023-05-10T00:51:18;79922.00;;;10.70
12007;BMP180;6062;47.294;12.182;2023-05-10T00:53:45;79916.00;;;10.70
12007;BMP180;6062;47.294;12.182;2023-05-10T00:56:12;79922.00;;;10.60
12007;BMP180;6062;47.294;12.182;2023-05-10T00:58:41;79924.00;;;10.60
12007;BMP180;6062;47.294;12.182;2023-05-10T01:01:08;79920.00;;;10.50
12007;BMP180;6062;47.294;12.182;2023-05-10T01:03:35;79915.00;;;10.60
12007;BMP180;6062;47.294;12.182;2023-05-10T01:06:01;79918.00;;;10.50
12007;BMP180;6062;47.294;12.182;2023-05-10T01:08:28;79915.00;;;10.50
12007;BMP180;6062;47.294;12.182;2023-05-10T01:10:55;79916.00;;;10.50
12007;BMP180;6062;47.294;12.182;2023-05-10T01:13:42;79921.00;;;10.50
12007;BMP180;6062;47.294;12.182;2023-05-10T01:16:08;79916.00;;;10.50
12007;BMP180;6062;47.294;12.182;2023-05-10T01:18:39;79914.00;;;10.50
12007;BMP180;6062;47.294;12.182;2023-05-10T01:25:08;79907.00;;;10.50
12007;BMP180;6062;47.294;12.182;2023-05-10T01:33:39;79918.00;;;10.50
12007;BMP180;6062;47.294;12.182;2023-05-10T01:36:29;79911.00;;;10.40
12007;BMP180;6062;47.294;12.182;2023-05-10T01:39:04;79912.00;;;10.40
12007;BMP180;6062;47.294;12.182;2023-05-10T01:49:56;79913.00;;;10.30
12007;BMP180;6062;47.294;12.182;2023-05-10T01:52:31;79913.00;;;10.30
12007;BMP180;6062;47.294;12.182;2023-05-10T01:55:05;79917.00;;;10.30
12007;BMP180;6062;47.294;12.182;2023-05-10T01:57:37;79926.00;;;10.30
12007;BMP180;6062;47.294;12.182;2023-05-10T02:00:07;79915.00;;;10.30
12007;BMP180;6062;47.294;12.182;2023-05-10T02:02:38;79923.00;;;10.30
12007;BMP180;6062;47.294;12.182;2023-05-10T02:05:06;79917.00;;;10.30
12007;BMP180;6062;47.294;12.182;2023-05-10T02:07:36;79923.00;;;10.30
12007;BMP180;6062;47.294;12.182;2023-05-10T02:10:07;79930.00;;;10.30
12007;BMP180;6062;47.294;12.182;2023-05-10T02:12:43;79923.00;;;10.30
12007;BMP180;6062;47.294;12.182;2023-05-10T02:15:12;79924.00;;;10.30
12007;BMP180;6062;47.294;12.182;2023-05-10T02:17:43;79912.00;;;10.30
12007;BMP180;6062;47.294;12.182;2023-05-10T02:20:10;79918.00;;;10.30
12007;BMP180;6062;47.294;12.182;2023-05-10T02:22:38;79915.00;;;10.30
12007;BMP180;6062;47.294;12.182;2023-05-10T02:25:07;79919.00;;;10.30
12007;BMP180;6062;47.294;12.182;2023-05-10T02:27:36;79918.00;;;10.20
12007;BMP180;6062;47.294;12.182;2023-05-10T02:30:04;79921.00;;;10.20
12007;BMP180;6062;47.294;12.182;2023-05-10T02:32:31;79913.00;;;10.20
12007;BMP180;6062;47.294;12.182;2023-05-10T02:34:58;79915.00;;;10.20
12007;BMP180;6062;47.294;12.182;2023-05-10T02:37:26;79915.00;;;10.20
12007;BMP180;6062;47.294;12.182;2023-05-10T02:39:55;79910.00;;;10.10
12007;BMP180;6062;47.294;12.182;2023-05-10T02:42:27;79913.00;;;10.10
12007;BMP180;6062;47.294;12.182;2023-05-10T02:45:07;79920.00;;;10.10
12007;BMP180;6062;47.294;12.182;2023-05-10T02:47:33;79916.00;;;10.00
12007;BMP180;6062;47.294;12.182;2023-05-10T02:49:59;79909.00;;;9.90
12007;BMP180;6062;47.294;12.182;2023-05-10T02:52:30;79910.00;;;9.80
12007;BMP180;6062;47.294;12.182;2023-05-10T02:55:02;79914.00;;;9.80
12007;BMP180;6062;47.294;12.182;2023-05-10T02:57:34;79915.00;;;9.80
12007;BMP180;6062;47.294;12.182;2023-05-10T03:00:01;79916.00;;;9.80
12007;BMP180;6062;47.294;12.182;2023-05-10T03:02:28;79915.00;;;9.80
12007;BMP180;6062;47.294;12.182;2023-05-10T03:04:56;79920.00;;;9.80
12007;BMP180;6062;47.294;12.182;2023-05-10T03:07:22;79918.00;;;9.80
12007;BMP180;6062;47.294;12.182;2023-05-10T03:09:50;79921.00;;;9.80
12007;BMP180;6062;47.294;12.182;2023-05-10T03:15:47;79917.00;;;9.80
12007;BMP180;6062;47.294;12.182;2023-05-10T03:18:23;79921.00;;;9.80
12007;BMP180;6062;47.294;12.182;2023-05-10T03:21:01;79919.00;;;9.80
12007;BMP180;6062;47.294;12.182;2023-05-10T03:23:43;79922.00;;;9.80
12007;BMP180;6062;47.294;12.182;2023-05-10T03:26:13;79919.00;;;9.80
12007;BMP180;6062;47.294;12.182;2023-05-10T03:28:43;79927.00;;;9.80
12007;BMP180;6062;47.294;12.182;2023-05-10T03:31:09;79922.00;;;9.80
12007;BMP180;6062;47.294;12.182;2023-05-10T03:33:35;79923.00;;;9.80
12007;BMP180;6062;47.294;12.182;2023-05-10T03:36:00;79929.00;;;9.80
12007;BMP180;6062;47.294;12.182;2023-05-10T03:38:26;79931.00;;;9.80
12007;BMP180;6062;47.294;12.182;2023-05-10T03:40:52;79923.00;;;9.80
12007;BMP180;6062;47.294;12.182;2023-05-10T03:43:17;79929.00;;;9.70
12007;BMP180;6062;47.294;12.182;2023-05-10T03:45:43;79932.00;;;9.70
12007;BMP180;6062;47.294;12.182;2023-05-10T03:48:09;79924.00;;;9.70
12007;BMP180;6062;47.294;12.182;2023-05-10T03:50:34;79925.00;;;9.60
12007;BMP180;6062;47.294;12.182;2023-05-10T03:53:00;79923.00;;;9.60
12007;BMP180;6062;47.294;12.182;2023-05-10T03:55:26;79929.00;;;9.60
12007;BMP180;6062;47.294;12.182;2023-05-10T03:57:51;79924.00;;;9.50
12007;BMP180;6062;47.294;12.182;2023-05-10T04:00:19;79930.00;;;9.50
12007;BMP180;6062;47.294;12.182;2023-05-10T04:02:45;79927.00;;;9.50
12007;BMP180;6062;47.294;12.182;2023-05-10T04:05:11;79931.00;;;9.50
12007;BMP180;6062;47.294;12.182;2023-05-10T04:07:37;79927.00;;;9.50
12007;BMP180;6062;47.294;12.182;2023-05-10T04:10:03;79924.00;;;9.50
12007;BMP180;6062;47.294;12.182;2023-05-10T04:12:28;79929.00;;;9.50
12007;BMP180;6062;47.294;12.182;2023-05-10T04:14:54;79916.00;;;9.50
12007;BMP180;6062;47.294;12.182;2023-05-10T04:17:20;79928.00;;;9.50
12007;BMP180;6062;47.294;12.182;2023-05-10T04:19:46;79930.00;;;9.50
12007;BMP180;6062;47.294;12.182;2023-05-10T04:22:11;79934.00;;;9.60
12007;BMP180;6062;47.294;12.182;2023-05-10T04:24:37;79924.00;;;9.60
12007;BMP180;6062;47.294;12.182;2023-05-10T04:27:03;79930.00;;;9.60
12007;BMP180;6062;47.294;12.182;2023-05-10T04:29:28;79927.00;;;9.60
12007;BMP180;6062;47.294;12.182;2023-05-10T04:31:54;79938.00;;;9.60
12007;BMP180;6062;47.294;12.182;2023-05-10T04:34:22;79929.00;;;9.60
12007;BMP180;6062;47.294;12.182;2023-05-10T04:36:47;79925.00;;;9.60
12007;BMP180;6062;47.294;12.182;2023-05-10T04:39:13;79932.00;;;9.60
12007;BMP180;6062;47.294;12.182;2023-05-10T04:41:39;79927.00;;;9.60
12007;BMP180;6062;47.294;12.182;2023-05-10T04:44:05;79927.00;;;9.70
12007;BMP180;6062;47.294;12.182;2023-05-10T04:46:31;79934.00;;;9.70
12007;BMP180;6062;47.294;12.182;2023-05-10T04:48:57;79934.00;;;9.70
12007;BMP180;6062;47.294;12.182;2023-05-10T04:51:22;79936.00;;;9.70
12007;BMP180;6062;47.294;12.182;2023-05-10T04:53:48;79936.00;;;9.70
12007;BMP180;6062;47.294;12.182;2023-05-10T04:56:14;79939.00;;;9.70
12007;BMP180;6062;47.294;12.182;2023-05-10T04:58:40;79943.00;;;9.80
12007;BMP180;6062;47.294;12.182;2023-05-10T05:01:07;79938.00;;;9.80
12007;BMP180;6062;47.294;12.182;2023-05-10T05:03:33;79945.00;;;9.80
12007;BMP180;6062;47.294;12.182;2023-05-10T05:05:59;79941.00;;;9.80
12007;BMP180;6062;47.294;12.182;2023-05-10T05:08:25;79944.00;;;9.90
12007;BMP180;6062;47.294;12.182;2023-05-10T05:10:51;79945.00;;;9.90
12007;BMP180;6062;47.294;12.182;2023-05-10T05:13:17;79949.00;;;9.90
12007;BMP180;6062;47.294;12.182;2023-05-10T05:15:42;79954.00;;;10.00
12007;BMP180;6062;47.294;12.182;2023-05-10T05:18:08;79943.00;;;10.00
12007;BMP180;6062;47.294;12.182;2023-05-10T05:20:34;79944.00;;;10.00
12007;BMP180;6062;47.294;12.182;2023-05-10T05:23:01;79945.00;;;10.00
12007;BMP180;6062;47.294;12.182;2023-05-10T05:25:26;79950.00;;;10.10
12007;BMP180;6062;47.294;12.182;2023-05-10T05:27:52;79944.00;;;10.10
12007;BMP180;6062;47.294;12.182;2023-05-10T05:30:18;79939.00;;;10.10
12007;BMP180;6062;47.294;12.182;2023-05-10T05:32:44;79948.00;;;10.10
12007;BMP180;6062;47.294;12.182;2023-05-10T05:35:10;79951.00;;;10.10
12007;BMP180;6062;47.294;12.182;2023-05-10T05:37:36;79950.00;;;10.20
12007;BMP180;6062;47.294;12.182;2023-05-10T05:40:03;79950.00;;;10.20
12007;BMP180;6062;47.294;12.182;2023-05-10T05:42:28;79953.00;;;10.30
12007;BMP180;6062;47.294;12.182;2023-05-10T05:44:56;79951.00;;;10.30
12007;BMP180;6062;47.294;12.182;2023-05-10T05:47:21;79953.00;;;10.40
12007;BMP180;6062;47.294;12.182;2023-05-10T05:49:47;79959.00;;;10.40
12007;BMP180;6062;47.294;12.182;2023-05-10T05:52:13;79961.00;;;10.50
12007;BMP180;6062;47.294;12.182;2023-05-10T05:54:39;79963.00;;;10.60
12007;BMP180;6062;47.294;12.182;2023-05-10T05:57:05;79962.00;;;10.60
12007;BMP180;6062;47.294;12.182;2023-05-10T05:59:30;79965.00;;;10.70
12007;BMP180;6062;47.294;12.182;2023-05-10T06:01:56;79965.00;;;10.70
12007;BMP180;6062;47.294;12.182;2023-05-10T06:04:22;79959.00;;;10.80
12007;BMP180;6062;47.294;12.182;2023-05-10T06:06:48;79969.00;;;10.80
12007;BMP180;6062;47.294;12.182;2023-05-10T06:09:13;79960.00;;;10.80
12007;BMP180;6062;47.294;12.182;2023-05-10T06:11:39;79967.00;;;10.80
12007;BMP180;6062;47.294;12.182;2023-05-10T06:14:05;79962.00;;;10.80
12007;BMP180;6062;47.294;12.182;2023-05-10T06:16:34;79975.00;;;10.80
12007;BMP180;6062;47.294;12.182;2023-05-10T06:19:00;79973.00;;;10.80
12007;BMP180;6062;47.294;12.182;2023-05-10T06:21:26;79980.00;;;10.90
12007;BMP180;6062;47.294;12.182;2023-05-10T06:23:52;79982.00;;;10.90
12007;BMP180;6062;47.294;12.182;2023-05-10T06:26:17;79973.00;;;10.90
12007;BMP180;6062;47.294;12.182;2023-05-10T06:28:43;79981.00;;;10.90
12007;BMP180;6062;47.294;12.182;2023-05-10T06:31:09;79989.00;;;11.00
12007;BMP180;6062;47.294;12.182;2023-05-10T06:33:36;79983.00;;;11.00
12007;BMP180;6062;47.294;12.182;2023-05-10T06:36:02;79989.00;;;11.00
12007;BMP180;6062;47.294;12.182;2023-05-10T06:38:28;79988.00;;;11.00
12007;BMP180;6062;47.294;12.182;2023-05-10T06:40:54;79987.00;;;11.00
12007;BMP180;6062;47.294;12.182;2023-05-10T06:43:19;79988.00;;;11.10
12007;BMP180;6062;47.294;12.182;2023-05-10T06:45:45;79990.00;;;11.10
12007;BMP180;6062;47.294;12.182;2023-05-10T06:48:11;79992.00;;;11.10
12007;BMP180;6062;47.294;12.182;2023-05-10T06:50:37;79984.00;;;11.10
12007;BMP180;6062;47.294;12.182;2023-05-10T06:53:02;79980.00;;;11.10
12007;BMP180;6062;47.294;12.182;2023-05-10T06:55:29;79988.00;;;11.10
12007;BMP180;6062;47.294;12.182;2023-05-10T06:57:55;79988.00;;;11.10
12007;BMP180;6062;47.294;12.182;2023-05-10T07:00:20;79991.00;;;11.20
12007;BMP180;6062;47.294;12.182;2023-05-10T07:02:46;79983.00;;;11.20
12007;BMP180;6062;47.294;12.182;2023-05-10T07:05:13;79986.00;;;11.20
12007;BMP180;6062;47.294;12.182;2023-05-10T07:07:39;79987.00;;;11.20
12007;BMP180;6062;47.294;12.182;2023-05-10T07:10:06;79980.00;;;11.20
12007;BMP180;6062;47.294;12.182;2023-05-10T07:12:32;79987.00;;;11.20
12007;BMP180;6062;47.294;12.182;2023-05-10T07:14:58;79983.00;;;11.30
12007;BMP180;6062;47.294;12.182;2023-05-10T07:17:24;79983.00;;;11.30
12007;BMP180;6062;47.294;12.182;2023-05-10T07:19:50;79975.00;;;11.40
12007;BMP180;6062;47.294;12.182;2023-05-10T07:22:16;79982.00;;;11.40
12007;BMP180;6062;47.294;12.182;2023-05-10T07:24:42;79984.00;;;11.50
12007;BMP180;6062;47.294;12.182;2023-05-10T07:27:08;79985.00;;;11.50
12007;BMP180;6062;47.294;12.182;2023-05-10T07:29:35;79982.00;;;11.60
12007;BMP180;6062;47.294;12.182;2023-05-10T07:32:00;79989.00;;;11.70
12007;BMP180;6062;47.294;12.182;2023-05-10T07:34:26;79987.00;;;11.80
12007;BMP180;6062;47.294;12.182;2023-05-10T07:36:53;79981.00;;;11.80
12007;BMP180;6062;47.294;12.182;2023-05-10T07:39:18;79991.00;;;11.90
12007;BMP180;6062;47.294;12.182;2023-05-10T07:41:45;79985.00;;;11.90
12007;BMP180;6062;47.294;12.182;2023-05-10T07:44:11;79986.00;;;11.90
12007;BMP180;6062;47.294;12.182;2023-05-10T07:46:37;79991.00;;;11.90
12007;BMP180;6062;47.294;12.182;2023-05-10T07:49:03;79995.00;;;11.90
12007;BMP180;6062;47.294;12.182;2023-05-10T07:51:29;79997.00;;;11.90
12007;BMP180;6062;47.294;12.182;2023-05-10T07:53:55;79995.00;;;12.00
12007;BMP180;6062;47.294;12.182;2023-05-10T07:56:24;79997.00;;;12.00
12007;BMP180;6062;47.294;12.182;2023-05-10T07:59:02;79993.00;;;12.00
12007;BMP180;6062;47.294;12.182;2023-05-10T08:01:34;79999.00;;;12.00
12007;BMP180;6062;47.294;12.182;2023-05-10T08:04:01;79997.00;;;11.90
12007;BMP180;6062;47.294;12.182;2023-05-10T08:06:27;80000.00;;;11.80
12007;BMP180;6062;47.294;12.182;2023-05-10T08:08:55;79999.00;;;11.80
12007;BMP180;6062;47.294;12.182;2023-05-10T08:11:21;79994.00;;;11.90
12007;BMP180;6062;47.294;12.182;2023-05-10T08:13:49;79995.00;;;12.00
12007;BMP180;6062;47.294;12.182;2023-05-10T08:16:16;79996.00;;;12.00
12007;BMP180;6062;47.294;12.182;2023-05-10T08:18:45;79994.00;;;12.00
12007;BMP180;6062;47.294;12.182;2023-05-10T08:21:13;79989.00;;;11.90
12007;BMP180;6062;47.294;12.182;2023-05-10T08:23:39;79994.00;;;11.90
12007;BMP180;6062;47.294;12.182;2023-05-10T08:26:05;79990.00;;;11.90
12007;BMP180;6062;47.294;12.182;2023-05-10T08:28:31;79992.00;;;12.00
12007;BMP180;6062;47.294;12.182;2023-05-10T08:30:57;79993.00;;;12.00
12007;BMP180;6062;47.294;12.182;2023-05-10T08:33:22;79994.00;;;12.20
12007;BMP180;6062;47.294;12.182;2023-05-10T08:35:48;79998.00;;;12.50
12007;BMP180;6062;47.294;12.182;2023-05-10T08:38:14;79993.00;;;12.80
12007;BMP180;6062;47.294;12.182;2023-05-10T08:40:43;79988.00;;;13.00
12007;BMP180;6062;47.294;12.182;2023-05-10T08:43:12;79997.00;;;13.30
12007;BMP180;6062;47.294;12.182;2023-05-10T08:45:43;79993.00;;;13.50
12007;BMP180;6062;47.294;12.182;2023-05-10T08:48:11;80001.00;;;13.70
12007;BMP180;6062;47.294;12.182;2023-05-10T08:50:40;79990.00;;;13.90
12007;BMP180;6062;47.294;12.182;2023-05-10T08:53:12;79996.00;;;14.00
12007;BMP180;6062;47.294;12.182;2023-05-10T08:55:39;79995.00;;;14.20
12007;BMP180;6062;47.294;12.182;2023-05-10T08:58:06;80002.00;;;14.40
12007;BMP180;6062;47.294;12.182;2023-05-10T09:00:33;80005.00;;;14.40
12007;BMP180;6062;47.294;12.182;2023-05-10T09:03:00;80007.00;;;14.50
12007;BMP180;6062;47.294;12.182;2023-05-10T09:05:27;80006.00;;;14.60
12007;BMP180;6062;47.294;12.182;2023-05-10T09:07:53;80010.00;;;14.60
12007;BMP180;6062;47.294;12.182;2023-05-10T09:10:20;80019.00;;;14.60
12007;BMP180;6062;47.294;12.182;2023-05-10T09:12:46;80022.00;;;14.70
12007;BMP180;6062;47.294;12.182;2023-05-10T09:15:15;80028.00;;;14.60
12007;BMP180;6062;47.294;12.182;2023-05-10T09:17:43;80018.00;;;14.50
12007;BMP180;6062;47.294;12.182;2023-05-10T09:20:09;80020.00;;;14.50
12007;BMP180;6062;47.294;12.182;2023-05-10T09:22:35;80020.00;;;14.30
12007;BMP180;6062;47.294;12.182;2023-05-10T09:25:09;80028.00;;;14.10
12007;BMP180;6062;47.294;12.182;2023-05-10T09:27:41;80018.00;;;13.80
12007;BMP180;6062;47.294;12.182;2023-05-10T09:30:08;80027.00;;;13.50
12007;BMP180;6062;47.294;12.182;2023-05-10T09:32:44;80033.00;;;13.20
12007;BMP180;6062;47.294;12.182;2023-05-10T09:35:13;80030.00;;;12.80
12007;BMP180;6062;47.294;12.182;2023-05-10T09:37:47;80032.00;;;12.50
12007;BMP180;6062;47.294;12.182;2023-05-10T09:40:20;80023.00;;;12.30
12007;BMP180;6062;47.294;12.182;2023-05-10T09:43:02;80027.00;;;12.10
12007;BMP180;6062;47.294;12.182;2023-05-10T09:45:31;80023.00;;;12.00
12007;BMP180;6062;47.294;12.182;2023-05-10T09:47:58;80031.00;;;11.80
12007;BMP180;6062;47.294;12.182;2023-05-10T09:50:25;80028.00;;;11.60
12007;BMP180;6062;47.294;12.182;2023-05-10T09:52:57;80029.00;;;11.40
12007;BMP180;6062;47.294;12.182;2023-05-10T09:55:45;80027.00;;;11.30
12007;BMP180;6062;47.294;12.182;2023-05-10T09:58:13;80029.00;;;11.30
12007;BMP180;6062;47.294;12.182;2023-05-10T10:00:42;80021.00;;;11.30
12007;BMP180;6062;47.294;12.182;2023-05-10T10:03:20;80020.00;;;11.40
12007;BMP180;6062;47.294;12.182;2023-05-10T10:05:48;80021.00;;;11.40
12007;BMP180;6062;47.294;12.182;2023-05-10T10:08:15;80018.00;;;11.50
12007;BMP180;6062;47.294;12.182;2023-05-10T10:10:42;80013.00;;;11.60
12007;BMP180;6062;47.294;12.182;2023-05-10T10:13:09;80021.00;;;11.70
12007;BMP180;6062;47.294;12.182;2023-05-10T10:15:35;80024.00;;;11.80
12007;BMP180;6062;47.294;12.182;2023-05-10T10:18:02;80027.00;;;11.90
12007;BMP180;6062;47.294;12.182;2023-05-10T10:20:29;80023.00;;;11.80
12007;BMP180;6062;47.294;12.182;2023-05-10T10:22:55;80034.00;;;11.60
12007;BMP180;6062;47.294;12.182;2023-05-10T10:25:22;80024.00;;;11.40
12007;BMP180;6062;47.294;12.182;2023-05-10T10:33:33;80028.00;;;10.90
12007;BMP180;6062;47.294;12.182;2023-05-10T10:36:03;80027.00;;;10.80
12007;BMP180;6062;47.294;12.182;2023-05-10T10:41:34;80022.00;;;11.00
12007;BMP180;6062;47.294;12.182;2023-05-10T10:44:22;80028.00;;;11.20
12007;BMP180;6062;47.294;12.182;2023-05-10T10:50:06;80028.00;;;11.70
12007;BMP180;6062;47.294;12.182;2023-05-10T10:52:39;80018.00;;;12.10
12007;BMP180;6062;47.294;12.182;2023-05-10T11:03:06;80020.00;;;12.80
12007;BMP180;6062;47.294;12.182;2023-05-10T11:05:44;80019.00;;;12.70
12007;BMP180;6062;47.294;12.182;2023-05-10T11:08:31;80016.00;;;12.60
12007;BMP180;6062;47.294;12.182;2023-05-10T11:16:19;80014.00;;;12.20
12007;BMP180;6062;47.294;12.182;2023-05-10T11:19:06;80004.00;;;12.10
12007;BMP180;6062;47.294;12.182;2023-05-10T11:21:34;80005.00;;;12.20
12007;BMP180;6062;47.294;12.182;2023-05-10T11:24:17;80009.00;;;12.20
12007;BMP180;6062;47.294;12.182;2023-05-10T11:26:44;80004.00;;;12.30
12007;BMP180;6062;47.294;12.182;2023-05-10T11:29:10;80002.00;;;12.30
12007;BMP180;6062;47.294;12.182;2023-05-10T11:31:45;80007.00;;;12.30
12007;BMP180;6062;47.294;12.182;2023-05-10T11:34:27;80004.00;;;12.30
12007;BMP180;6062;47.294;12.182;2023-05-10T11:36:55;80008.00;;;12.30
12007;BMP180;6062;47.294;12.182;2023-05-10T11:39:26;80007.00;;;12.40
12007;BMP180;6062;47.294;12.182;2023-05-10T11:41:51;80003.00;;;12.60
12007;BMP180;6062;47.294;12.182;2023-05-10T11:44:17;80003.00;;;12.80
12007;BMP180;6062;47.294;12.182;2023-05-10T11:46:43;80009.00;;;13.10
12007;BMP180;6062;47.294;12.182;2023-05-10T11:49:09;80015.00;;;13.30
12007;BMP180;6062;47.294;12.182;2023-05-10T11:51:36;80014.00;;;13.50
12007;BMP180;6062;47.294;12.182;2023-05-10T11:54:07;80015.00;;;13.80
12007;BMP180;6062;47.294;12.182;2023-05-10T11:56:34;80017.00;;;14.00
12007;BMP180;6062;47.294;12.182;2023-05-10T11:59:00;80007.00;;;14.10
12007;BMP180;6062;47.294;12.182;2023-05-10T12:01:28;80018.00;;;14.30
12007;BMP180;6062;47.294;12.182;2023-05-10T12:03:56;80017.00;;;14.40
12007;BMP180;6062;47.294;12.182;2023-05-10T12:06:31;80009.00;;;14.50
12007;BMP180;6062;47.294;12.182;2023-05-10T12:08:58;80017.00;;;14.50
12007;BMP180;6062;47.294;12.182;2023-05-10T12:11:28;80025.00;;;14.50
12007;BMP180;6062;47.294;12.182;2023-05-10T12:13:55;80027.00;;;14.50
12007;BMP180;6062;47.294;12.182;2023-05-10T12:16:24;80022.00;;;14.40
12007;BMP180;6062;47.294;12.182;2023-05-10T12:18:52;80025.00;;;14.30
12007;BMP180;6062;47.294;12.182;2023-05-10T12:21:21;80010.00;;;14.30
12007;BMP180;6062;47.294;12.182;2023-05-10T12:23:52;80018.00;;;14.20
12007;BMP180;6062;47.294;12.182;2023-05-10T12:26:18;80030.00;;;14.10
12007;BMP180;6062;47.294;12.182;2023-05-10T12:28:46;80028.00;;;13.90
12007;BMP180;6062;47.294;12.182;2023-05-10T12:31:12;80025.00;;;13.50
12007;BMP180;6062;47.294;12.182;2023-05-10T12:33:44;80021.00;;;13.00
12007;BMP180;6062;47.294;12.182;2023-05-10T12:36:16;80022.00;;;12.60
12007;BMP180;6062;47.294;12.182;2023-05-10T12:38:46;80028.00;;;12.20
12007;BMP180;6062;47.294;12.182;2023-05-10T12:41:17;80018.00;;;11.80
12007;BMP180;6062;47.294;12.182;2023-05-10T12:43:44;80021.00;;;11.50
12007;BMP180;6062;47.294;12.182;2023-05-10T12:46:16;80020.00;;;11.40
12007;BMP180;6062;47.294;12.182;2023-05-10T12:48:43;80024.00;;;11.20
12007;BMP180;6062;47.294;12.182;2023-05-10T12:51:10;80023.00;;;11.00
12007;BMP180;6062;47.294;12.182;2023-05-10T12:53:39;80020.00;;;10.80
12007;BMP180;6062;47.294;12.182;2023-05-10T12:56:05;80023.00;;;10.70
12007;BMP180;6062;47.294;12.182;2023-05-10T12:58:31;80015.00;;;10.50
12007;BMP180;6062;47.294;12.182;2023-05-10T13:00:58;80014.00;;;10.40
12007;BMP180;6062;47.294;12.182;2023-05-10T13:03:24;80023.00;;;10.20
12007;BMP180;6062;47.294;12.182;2023-05-10T13:05:50;80021.00;;;10.10
12007;BMP180;6062;47.294;12.182;2023-05-10T13:08:16;80021.00;;;9.90
12007;BMP180;6062;47.294;12.182;2023-05-10T13:10:42;80019.00;;;9.70
12007;BMP180;6062;47.294;12.182;2023-05-10T13:13:07;80019.00;;;9.50
12007;BMP180;6062;47.294;12.182;2023-05-10T13:15:34;80020.00;;;9.30
12007;BMP180;6062;47.294;12.182;2023-05-10T13:18:00;80013.00;;;9.10
12007;BMP180;6062;47.294;12.182;2023-05-10T13:20:26;80019.00;;;8.90
12007;BMP180;6062;47.294;12.182;2023-05-10T13:22:52;80019.00;;;8.70
12007;BMP180;6062;47.294;12.182;2023-05-10T13:25:18;80018.00;;;8.70
12007;BMP180;6062;47.294;12.182;2023-05-10T13:27:44;80020.00;;;8.70
12007;BMP180;6062;47.294;12.182;2023-05-10T13:30:10;80021.00;;;8.70
12007;BMP180;6062;47.294;12.182;2023-05-10T13:32:39;80018.00;;;8.70
12007;BMP180;6062;47.294;12.182;2023-05-10T13:35:05;80005.00;;;8.60
12007;BMP180;6062;47.294;12.182;2023-05-10T13:37:32;80010.00;;;8.60
12007;BMP180;6062;47.294;12.182;2023-05-10T13:40:01;80009.00;;;8.50
12007;BMP180;6062;47.294;12.182;2023-05-10T13:42:26;80011.00;;;8.50
12007;BMP180;6062;47.294;12.182;2023-05-10T13:44:52;80006.00;;;8.50
12007;BMP180;6062;47.294;12.182;2023-05-10T13:47:18;80006.00;;;8.60
12007;BMP180;6062;47.294;12.182;2023-05-10T13:49:44;80000.00;;;8.70
12007;BMP180;6062;47.294;12.182;2023-05-10T13:52:10;80008.00;;;8.70
12007;BMP180;6062;47.294;12.182;2023-05-10T13:54:38;80004.00;;;8.70
12007;BMP180;6062;47.294;12.182;2023-05-10T13:57:05;80005.00;;;8.60
12007;BMP180;6062;47.294;12.182;2023-05-10T13:59:30;80003.00;;;8.50
12007;BMP180;6062;47.294;12.182;2023-05-10T14:02:00;79995.00;;;8.40
12007;BMP180;6062;47.294;12.182;2023-05-10T14:04:29;79999.00;;;8.40
12007;BMP180;6062;47.294;12.182;2023-05-10T14:06:56;80000.00;;;8.40
12007;BMP180;6062;47.294;12.182;2023-05-10T14:09:22;79999.00;;;8.40
12007;BMP180;6062;47.294;12.182;2023-05-10T14:11:48;80001.00;;;8.50
12007;BMP180;6062;47.294;12.182;2023-05-10T14:14:13;80002.00;;;8.70
12007;BMP180;6062;47.294;12.182;2023-05-10T14:16:44;79991.00;;;9.00
12007;BMP180;6062;47.294;12.182;2023-05-10T14:19:11;79995.00;;;9.10
12007;BMP180;6062;47.294;12.182;2023-05-10T14:21:37;79993.00;;;9.10
12007;BMP180;6062;47.294;12.182;2023-05-10T14:24:04;79986.00;;;9.10
12007;BMP180;6062;47.294;12.182;2023-05-10T14:26:30;79987.00;;;9.10
12007;BMP180;6062;47.294;12.182;2023-05-10T14:28:56;79986.00;;;9.00
12007;BMP180;6062;47.294;12.182;2023-05-10T14:31:21;79984.00;;;8.90
12007;BMP180;6062;47.294;12.182;2023-05-10T14:33:49;79985.00;;;8.90
12007;BMP180;6062;47.294;12.182;2023-05-10T14:36:15;79989.00;;;8.80
12007;BMP180;6062;47.294;12.182;2023-05-10T14:38:41;79982.00;;;8.80
12007;BMP180;6062;47.294;12.182;2023-05-10T14:41:07;79988.00;;;8.80
12007;BMP180;6062;47.294;12.182;2023-05-10T14:43:33;79989.00;;;8.80
12007;BMP180;6062;47.294;12.182;2023-05-10T14:45:58;79986.00;;;8.90
12007;BMP180;6062;47.294;12.182;2023-05-10T14:48:24;79988.00;;;8.90
12007;BMP180;6062;47.294;12.182;2023-05-10T14:50:50;79983.00;;;9.00
12007;BMP180;6062;47.294;12.182;2023-05-10T14:53:17;79986.00;;;9.10
12007;BMP180;6062;47.294;12.182;2023-05-10T14:55:43;79990.00;;;9.20
12007;BMP180;6062;47.294;12.182;2023-05-10T14:58:09;79991.00;;;9.30
12007;BMP180;6062;47.294;12.182;2023-05-10T15:00:35;79989.00;;;9.30